createdAt,value
2022-09-21T00:00:47.621Z,100.00
2022-09-21T00:03:16.008Z,100.00
2022-09-21T00:05:43.972Z,100.00
2022-09-21T00:08:14.207Z,100.00
2022-09-21T00:10:41.878Z,100.00
2022-09-21T00:13:13.388Z,100.00
2022-09-21T00:15:41.804Z,100.00
2022-09-21T00:18:11.104Z,100.00
2022-09-21T00:20:43.514Z,100.00
2022-09-21T00:23:11.165Z,100.00
2022-09-21T00:25:39.081Z,100.00
2022-09-21T00:28:06.712Z,100.00
2022-09-21T00:30:35.670Z,100.00
2022-09-21T00:33:03.262Z,100.00
2022-09-21T00:35:30.851Z,100.00
2022-09-21T00:38:02.165Z,100.00
2022-09-21T00:40:30.894Z,100.00
2022-09-21T00:43:13.183Z,100.00
2022-09-21T00:45:42.894Z,100.00
2022-09-21T00:48:11.094Z,100.00
2022-09-21T00:50:43.745Z,100.00
2022-09-21T00:53:11.726Z,100.00
2022-09-21T00:55:44.294Z,100.00
2022-09-21T00:58:18.094Z,100.00
2022-09-21T01:00:47.096Z,100.00
2022-09-21T01:03:14.789Z,100.00
2022-09-21T01:05:42.432Z,100.00
2022-09-21T01:08:13.537Z,100.00
2022-09-21T01:10:56.765Z,100.00
2022-09-21T01:13:35.790Z,100.00
2022-09-21T01:16:12.382Z,100.00
2022-09-21T01:18:46.774Z,100.00
2022-09-21T01:21:20.148Z,100.00
2022-09-21T01:24:12.874Z,100.00
2022-09-21T01:27:00.431Z,100.00
2022-09-21T01:29:33.557Z,100.00
2022-09-21T01:32:07.610Z,100.00
2022-09-21T01:34:40.110Z,100.00
2022-09-21T01:37:13.893Z,100.00
2022-09-21T01:39:46.320Z,100.00
2022-09-21T01:42:15.879Z,100.00
2022-09-21T01:44:46.296Z,100.00
2022-09-21T01:47:15.307Z,100.00
2022-09-21T01:49:47.756Z,100.00
2022-09-21T01:52:19.552Z,100.00
2022-09-21T01:54:51.886Z,100.00
2022-09-21T01:57:27.371Z,100.00
2022-09-21T01:59:59.059Z,100.00
2022-09-21T02:02:33.326Z,100.00
2022-09-21T02:05:03.250Z,100.00
2022-09-21T02:07:33.119Z,100.00
2022-09-21T02:10:03.057Z,100.00
2022-09-21T02:12:32.149Z,100.00
2022-09-21T02:15:03.192Z,100.00
2022-09-21T02:17:41.504Z,100.00
2022-09-21T02:20:20.577Z,100.00
2022-09-21T02:23:04.375Z,100.00
2022-09-21T02:25:41.170Z,100.00
2022-09-21T02:28:17.452Z,100.00
2022-09-21T02:30:55.210Z,100.00
2022-09-21T02:33:28.088Z,100.00
2022-09-21T02:36:01.186Z,100.00
2022-09-21T02:38:35.279Z,100.00
2022-09-21T02:41:11.046Z,100.00
2022-09-21T02:43:42.395Z,100.00
2022-09-21T02:46:16.036Z,100.00
2022-09-21T02:48:49.383Z,100.00
2022-09-21T02:51:21.889Z,100.00
2022-09-21T02:53:52.956Z,100.00
2022-09-21T02:56:21.845Z,100.00
2022-09-21T02:58:54.247Z,100.00
2022-09-21T03:01:26.029Z,100.00
2022-09-21T03:03:54.098Z,100.00
2022-09-21T03:06:21.884Z,100.00
2022-09-21T03:08:49.798Z,100.00
2022-09-21T03:11:18.222Z,100.00
2022-09-21T03:13:46.319Z,100.00
2022-09-21T03:16:14.838Z,100.00
2022-09-21T03:18:44.355Z,100.00
2022-09-21T03:21:12.853Z,100.00
2022-09-21T03:23:41.145Z,100.00
2022-09-21T03:26:09.427Z,100.00
2022-09-21T03:28:37.163Z,100.00
2022-09-21T03:31:06.679Z,100.00
2022-09-21T03:33:34.390Z,100.00
2022-09-21T03:36:04.207Z,100.00
2022-09-21T03:38:31.841Z,100.00
2022-09-21T03:40:59.474Z,100.00
2022-09-21T03:43:27.523Z,100.00
2022-09-21T03:45:55.249Z,100.00
2022-09-21T03:48:23.268Z,100.00
2022-09-21T03:50:51.292Z,100.00
2022-09-21T03:53:20.209Z,100.00
2022-09-21T03:55:47.803Z,100.00
2022-09-21T03:58:16.451Z,100.00
2022-09-21T04:00:44.138Z,100.00
2022-09-21T04:03:11.858Z,100.00
2022-09-21T04:05:40.328Z,100.00
2022-09-21T04:08:09.750Z,100.00
2022-09-21T04:10:42.186Z,100.00
2022-09-21T04:13:09.876Z,100.00
2022-09-21T04:15:37.517Z,100.00
2022-09-21T04:18:05.421Z,100.00
2022-09-21T04:20:33.222Z,100.00
2022-09-21T04:23:00.875Z,100.00
2022-09-21T04:25:28.795Z,100.00
2022-09-21T04:27:57.740Z,100.00
2022-09-21T04:30:25.396Z,100.00
2022-09-21T04:32:53.306Z,100.00
2022-09-21T04:35:20.992Z,100.00
2022-09-21T04:37:48.659Z,100.00
2022-09-21T04:40:16.971Z,100.00
2022-09-21T04:42:44.632Z,100.00
2022-09-21T04:45:14.113Z,100.00
2022-09-21T04:47:41.921Z,100.00
2022-09-21T04:50:10.506Z,100.00
2022-09-21T04:52:38.216Z,100.00
2022-09-21T04:55:06.684Z,100.00
2022-09-21T04:57:35.691Z,100.00
2022-09-21T05:00:03.830Z,100.00
2022-09-21T05:02:32.852Z,100.00
2022-09-21T05:05:00.500Z,100.00
2022-09-21T05:07:28.147Z,100.00
2022-09-21T05:10:03.738Z,100.00
2022-09-21T05:12:31.954Z,100.00
2022-09-21T05:14:59.764Z,100.00
2022-09-21T05:17:27.601Z,100.00
2022-09-21T05:19:56.940Z,100.00
2022-09-21T05:22:24.886Z,100.00
2022-09-21T05:24:52.555Z,100.00
2022-09-21T05:27:20.193Z,100.00
2022-09-21T05:29:48.381Z,100.00
2022-09-21T05:32:24.035Z,100.00
2022-09-21T05:35:03.348Z,100.00
2022-09-21T05:37:42.754Z,100.00
2022-09-21T05:40:12.875Z,100.00
2022-09-21T05:42:41.020Z,100.00
2022-09-21T05:45:11.284Z,100.00
2022-09-21T05:47:45.795Z,100.00
2022-09-21T05:50:25.582Z,100.00
2022-09-21T05:53:04.975Z,100.00
2022-09-21T05:55:43.447Z,100.00
2022-09-21T05:58:22.514Z,100.00
2022-09-21T06:01:01.936Z,100.00
2022-09-21T06:03:31.249Z,100.00
2022-09-21T06:06:00.628Z,100.00
2022-09-21T06:08:28.610Z,100.00
2022-09-21T06:10:56.389Z,100.00
2022-09-21T06:13:24.434Z,100.00
2022-09-21T06:15:52.041Z,100.00
2022-09-21T06:18:19.670Z,100.00
2022-09-21T06:20:47.332Z,100.00
2022-09-21T06:23:16.541Z,100.00
2022-09-21T06:25:44.112Z,100.00
2022-09-21T06:28:14.116Z,100.00
2022-09-21T06:30:42.361Z,100.00
2022-09-21T06:33:10.779Z,100.00
2022-09-21T06:35:40.311Z,100.00
2022-09-21T06:38:09.185Z,100.00
2022-09-21T06:40:38.224Z,100.00
2022-09-21T06:43:06.515Z,100.00
2022-09-21T06:45:34.567Z,100.00
2022-09-21T06:48:02.546Z,100.00
2022-09-21T06:50:30.152Z,100.00
2022-09-21T06:53:00.656Z,100.00
2022-09-21T06:55:28.663Z,100.00
2022-09-21T06:58:02.890Z,100.00
2022-09-21T07:00:30.862Z,100.00
2022-09-21T07:02:58.611Z,100.00
2022-09-21T07:05:26.675Z,100.00
2022-09-21T07:07:58.571Z,100.00
2022-09-21T07:10:26.522Z,100.00
2022-09-21T07:12:54.380Z,100.00
2022-09-21T07:15:23.667Z,100.00
2022-09-21T07:17:53.183Z,100.00
2022-09-21T07:20:32.384Z,100.00
2022-09-21T07:23:00.373Z,100.00
2022-09-21T07:25:27.976Z,100.00
2022-09-21T07:27:55.577Z,100.00
2022-09-21T07:30:24.532Z,100.00
2022-09-21T07:32:52.173Z,100.00
2022-09-21T07:35:20.204Z,100.00
2022-09-21T07:37:47.807Z,100.00
2022-09-21T07:40:15.643Z,100.00
2022-09-21T07:42:44.903Z,100.00
2022-09-21T07:45:12.624Z,100.00
2022-09-21T07:47:41.611Z,100.00
2022-09-21T07:50:09.961Z,100.00
2022-09-21T07:52:37.606Z,100.00
2022-09-21T07:55:05.915Z,100.00
2022-09-21T07:57:51.049Z,100.00
2022-09-21T08:00:18.848Z,100.00
2022-09-21T08:02:48.040Z,100.00
2022-09-21T08:05:16.246Z,100.00
2022-09-21T08:07:44.098Z,100.00
2022-09-21T08:10:11.905Z,100.00
2022-09-21T08:12:39.703Z,100.00
2022-09-21T08:15:16.495Z,100.00
2022-09-21T08:17:54.292Z,100.00
2022-09-21T08:20:23.349Z,100.00
2022-09-21T08:22:53.263Z,100.00
2022-09-21T08:25:21.150Z,100.00
2022-09-21T08:27:49.234Z,100.00
2022-09-21T08:30:16.976Z,100.00
2022-09-21T08:32:51.374Z,100.00
2022-09-21T08:35:20.993Z,100.00
2022-09-21T08:37:51.025Z,100.00
2022-09-21T08:40:20.339Z,100.00
2022-09-21T08:42:57.167Z,100.00
2022-09-21T08:45:27.716Z,100.00
2022-09-21T08:48:00.542Z,100.00
2022-09-21T08:50:36.270Z,100.00
2022-09-21T08:53:08.683Z,100.00
2022-09-21T08:55:36.357Z,100.00
2022-09-21T08:58:04.499Z,100.00
2022-09-21T09:00:39.173Z,100.00
2022-09-21T09:03:33.980Z,99.60
2022-09-21T09:06:10.911Z,98.68
2022-09-21T09:09:04.470Z,97.93
2022-09-21T09:11:45.228Z,96.48
2022-09-21T09:14:41.453Z,92.97
2022-09-21T09:17:33.881Z,93.25
2022-09-21T09:20:07.250Z,93.22
2022-09-21T09:22:43.178Z,91.66
2022-09-21T09:25:18.749Z,91.09
2022-09-21T09:27:47.802Z,90.33
2022-09-21T09:30:19.658Z,89.95
2022-09-21T09:32:55.133Z,88.22
2022-09-21T09:35:28.915Z,87.96
2022-09-21T09:38:01.569Z,88.84
2022-09-21T09:40:51.740Z,89.18
2022-09-21T09:43:36.794Z,88.88
2022-09-21T09:46:15.686Z,89.49
2022-09-21T09:48:56.507Z,90.04
2022-09-21T09:51:26.829Z,89.69
2022-09-21T09:54:00.947Z,88.54
2022-09-21T09:56:28.656Z,87.20
2022-09-21T09:59:00.586Z,86.19
2022-09-21T10:01:39.124Z,87.18
2022-09-21T10:04:08.677Z,87.02
2022-09-21T10:06:37.004Z,86.54
2022-09-21T10:09:20.438Z,85.52
2022-09-21T10:11:48.992Z,85.48
2022-09-21T10:14:21.665Z,84.17
2022-09-21T10:16:52.862Z,81.19
2022-09-21T10:19:26.158Z,79.88
2022-09-21T10:21:58.981Z,79.88
2022-09-21T10:24:30.850Z,79.70
2022-09-21T10:27:06.338Z,78.29
2022-09-21T10:29:41.790Z,79.05
2022-09-21T10:32:24.783Z,79.20
2022-09-21T10:35:13.515Z,78.97
2022-09-21T10:37:42.267Z,76.22
2022-09-21T10:40:26.539Z,76.32
2022-09-21T10:42:58.519Z,76.94
2022-09-21T10:45:27.950Z,72.69
2022-09-21T10:47:58.225Z,72.84
2022-09-21T10:50:30.308Z,73.50
2022-09-21T10:53:03.563Z,73.78
2022-09-21T10:55:33.343Z,72.86
2022-09-21T10:58:01.428Z,71.19
2022-09-21T11:00:35.884Z,71.41
2022-09-21T11:03:29.599Z,71.28
2022-09-21T11:05:58.860Z,71.35
2022-09-21T11:08:32.012Z,70.05
2022-09-21T11:11:14.638Z,69.80
2022-09-21T11:13:48.699Z,66.90
2022-09-21T11:16:22.089Z,67.18
2022-09-21T11:19:00.752Z,66.25
2022-09-21T11:21:36.412Z,65.45
2022-09-21T11:24:13.319Z,61.99
2022-09-21T11:26:48.602Z,61.80
2022-09-21T11:29:23.305Z,59.75
2022-09-21T11:32:06.095Z,61.44
2022-09-21T11:34:55.316Z,59.60
2022-09-21T11:37:48.228Z,60.14
2022-09-21T11:40:30.265Z,59.53
2022-09-21T11:43:13.447Z,58.88
2022-09-21T11:46:02.466Z,55.71
2022-09-21T11:48:46.163Z,53.46
2022-09-21T11:51:25.843Z,52.67
2022-09-21T11:54:22.275Z,51.45
2022-09-21T11:56:54.104Z,51.49
2022-09-21T11:59:40.153Z,52.61
2022-09-21T12:02:32.157Z,54.80
2022-09-21T12:05:12.396Z,55.12
2022-09-21T12:07:55.434Z,54.81
2022-09-21T12:10:39.410Z,55.88
2022-09-21T12:13:15.825Z,56.59
2022-09-21T12:15:51.998Z,56.21
2022-09-21T12:18:28.846Z,55.69
2022-09-21T12:21:05.249Z,54.25
2022-09-21T12:23:44.980Z,52.34
2022-09-21T12:26:18.598Z,50.88
2022-09-21T12:28:50.313Z,49.99
2022-09-21T12:31:25.699Z,49.15
2022-09-21T12:33:57.735Z,49.75
2022-09-21T12:36:31.011Z,48.79
2022-09-21T12:39:06.459Z,46.71
2022-09-21T12:41:40.810Z,45.38
2022-09-21T12:44:18.364Z,43.97
2022-09-21T12:46:53.491Z,43.63
2022-09-21T12:49:27.306Z,44.42
2022-09-21T12:51:58.684Z,44.23
2022-09-21T12:54:37.888Z,44.13
2022-09-21T12:57:42.529Z,43.48
2022-09-21T13:00:11.961Z,43.51
2022-09-21T13:02:48.829Z,44.62
2022-09-21T13:05:27.659Z,44.83
2022-09-21T13:08:05.358Z,42.74
2022-09-21T13:10:47.253Z,42.55
2022-09-21T13:13:25.173Z,41.34
2022-09-21T13:15:53.650Z,41.23
2022-09-21T13:18:27.279Z,41.62
2022-09-21T13:20:57.272Z,41.61
2022-09-21T13:23:29.393Z,41.71
2022-09-21T13:26:04.356Z,41.84
2022-09-21T13:29:09.766Z,42.58
2022-09-21T13:31:58.006Z,42.51
2022-09-21T13:34:29.734Z,42.48
2022-09-21T13:37:27.364Z,42.16
2022-09-21T13:40:42.453Z,41.64
2022-09-21T13:43:22.182Z,40.59
2022-09-21T13:45:56.023Z,39.86
2022-09-21T13:48:29.606Z,39.31
2022-09-21T13:51:01.676Z,39.32
2022-09-21T13:53:35.887Z,39.14
2022-09-21T13:56:09.776Z,38.33
2022-09-21T13:58:44.925Z,37.17
2022-09-21T14:01:45.147Z,36.24
2022-09-21T14:04:22.561Z,36.71
2022-09-21T14:06:54.179Z,36.99
2022-09-21T14:09:27.610Z,36.12
2022-09-21T14:11:58.779Z,36.85
2022-09-21T14:14:31.567Z,37.88
2022-09-21T14:17:00.380Z,38.44
2022-09-21T14:20:06.795Z,38.58
2022-09-21T14:22:41.056Z,38.71
2022-09-21T14:25:30.572Z,39.16
2022-09-21T14:28:05.875Z,38.91
2022-09-21T14:30:36.470Z,38.43
2022-09-21T14:33:22.249Z,37.92
2022-09-21T14:35:53.145Z,38.24
2022-09-21T14:38:26.884Z,37.29
2022-09-21T14:40:58.754Z,37.73
2022-09-21T14:43:29.356Z,37.69
2022-09-21T14:46:13.988Z,38.23
2022-09-21T14:48:53.089Z,37.16
2022-09-21T14:51:28.186Z,37.37
2022-09-21T14:54:17.453Z,36.37
2022-09-21T14:56:57.144Z,36.93
2022-09-21T14:59:38.591Z,37.67
2022-09-21T15:02:19.553Z,38.85
2022-09-21T15:05:01.912Z,39.05
2022-09-21T15:07:57.699Z,39.24
2022-09-21T15:10:54.530Z,40.11
2022-09-21T15:13:49.710Z,40.42
2022-09-21T15:16:42.518Z,39.96
2022-09-21T15:19:22.851Z,41.04
2022-09-21T15:21:52.573Z,41.24
2022-09-21T15:24:26.951Z,41.39
2022-09-21T15:27:06.367Z,42.43
2022-09-21T15:29:34.793Z,42.37
2022-09-21T15:32:02.990Z,42.62
2022-09-21T15:34:33.010Z,42.80
2022-09-21T15:37:17.293Z,43.79
2022-09-21T15:39:45.047Z,44.34
2022-09-21T15:42:22.909Z,45.70
2022-09-21T15:44:55.172Z,46.91
2022-09-21T15:47:26.123Z,48.03
2022-09-21T15:49:54.085Z,48.56
2022-09-21T15:52:30.112Z,49.50
2022-09-21T15:55:00.447Z,50.45
2022-09-21T15:57:40.291Z,51.35
2022-09-21T16:00:19.574Z,52.35
2022-09-21T16:02:57.072Z,53.21
2022-09-21T16:05:25.597Z,53.93
2022-09-21T16:08:05.936Z,54.68
2022-09-21T16:10:40.499Z,55.45
2022-09-21T16:13:41.595Z,55.69
2022-09-21T16:16:11.228Z,56.47
2022-09-21T16:18:46.093Z,57.12
2022-09-21T16:21:22.951Z,57.42
2022-09-21T16:23:52.583Z,57.59
2022-09-21T16:26:23.410Z,58.13
2022-09-21T16:28:58.839Z,58.31
2022-09-21T16:31:35.419Z,58.48
2022-09-21T16:34:07.524Z,59.01
2022-09-21T16:36:42.295Z,59.12
2022-09-21T16:39:15.826Z,59.49
2022-09-21T16:41:48.532Z,59.59
2022-09-21T16:44:22.989Z,59.82
2022-09-21T16:46:57.063Z,60.08
2022-09-21T16:49:30.170Z,59.97
2022-09-21T16:51:58.526Z,59.60
2022-09-21T16:54:27.366Z,59.21
2022-09-21T16:56:57.378Z,59.85
2022-09-21T16:59:27.571Z,60.50
2022-09-21T17:01:57.200Z,61.26
2022-09-21T17:04:27.841Z,61.65
2022-09-21T17:06:56.143Z,62.46
2022-09-21T17:09:29.497Z,62.80
2022-09-21T17:11:59.323Z,63.00
2022-09-21T17:14:32.461Z,63.29
2022-09-21T17:17:00.849Z,63.70
2022-09-21T17:19:28.519Z,63.80
2022-09-21T17:21:56.249Z,64.00
2022-09-21T17:24:48.835Z,64.46
2022-09-21T17:27:12.330Z,64.96
2022-09-21T17:29:47.748Z,65.27
2022-09-21T17:32:16.448Z,65.36
2022-09-21T17:34:44.920Z,65.73
2022-09-21T17:37:12.534Z,66.02
2022-09-21T17:39:41.828Z,66.35
2022-09-21T17:42:19.197Z,66.94
2022-09-21T17:45:12.411Z,67.06
2022-09-21T17:47:40.939Z,67.74
2022-09-21T17:50:20.549Z,68.11
2022-09-21T17:53:06.344Z,68.67
2022-09-21T17:55:34.658Z,69.04
2022-09-21T17:58:29.401Z,69.57
2022-09-21T18:01:02.579Z,69.90
2022-09-21T18:03:35.777Z,70.34
2022-09-21T18:06:04.120Z,71.00
2022-09-21T18:08:34.023Z,71.48
2022-09-21T18:11:13.526Z,72.09
2022-09-21T18:13:52.352Z,72.64
2022-09-21T18:16:35.861Z,73.08
2022-09-21T18:19:12.272Z,73.57
2022-09-21T18:21:44.480Z,74.01
2022-09-21T18:24:20.014Z,74.22
2022-09-21T18:26:49.143Z,74.70
2022-09-21T18:29:40.842Z,75.08
2022-09-21T18:32:32.244Z,75.28
2022-09-21T18:35:14.314Z,75.87
2022-09-21T18:37:53.557Z,76.47
2022-09-21T18:40:29.200Z,76.75
2022-09-21T18:43:06.115Z,76.96
2022-09-21T18:45:38.774Z,77.49
2022-09-21T18:48:22.675Z,77.82
2022-09-21T18:50:58.373Z,78.46
2022-09-21T18:53:34.299Z,78.54
2022-09-21T18:56:05.789Z,78.91
2022-09-21T18:58:35.317Z,79.29
2022-09-21T19:01:04.078Z,79.39
2022-09-21T19:03:34.036Z,79.56
2022-09-21T19:06:32.568Z,80.11
2022-09-21T19:09:10.286Z,80.48
2022-09-21T19:11:47.949Z,80.61
2022-09-21T19:14:23.481Z,81.15
2022-09-21T19:17:07.536Z,81.65
2022-09-21T19:19:46.599Z,81.91
2022-09-21T19:22:16.627Z,82.06
2022-09-21T19:24:57.028Z,82.16
2022-09-21T19:27:33.220Z,82.41
2022-09-21T19:30:07.063Z,82.55
2022-09-21T19:32:39.777Z,82.86
2022-09-21T19:35:19.102Z,83.15
2022-09-21T19:37:48.112Z,83.40
2022-09-21T19:40:17.197Z,83.77
2022-09-21T19:42:54.664Z,83.87
2022-09-21T19:45:27.781Z,84.20
2022-09-21T19:48:01.484Z,84.51
2022-09-21T19:50:41.070Z,84.63
2022-09-21T19:53:29.376Z,84.74
2022-09-21T19:56:16.561Z,85.05
2022-09-21T19:59:02.381Z,85.16
2022-09-21T20:01:33.026Z,85.26
2022-09-21T20:04:02.072Z,85.64
2022-09-21T20:06:37.307Z,85.77
2022-09-21T20:09:12.915Z,86.07
2022-09-21T20:11:47.960Z,85.89
2022-09-21T20:14:31.790Z,85.99
2022-09-21T20:17:01.114Z,86.23
2022-09-21T20:19:38.988Z,86.77
2022-09-21T20:22:14.083Z,86.81
2022-09-21T20:24:52.893Z,87.03
2022-09-21T20:27:30.548Z,87.02
2022-09-21T20:29:58.172Z,87.54
2022-09-21T20:32:25.960Z,87.75
2022-09-21T20:34:55.210Z,87.80
2022-09-21T20:37:27.464Z,87.77
2022-09-21T20:39:55.643Z,88.13
2022-09-21T20:42:24.816Z,88.43
2022-09-21T20:44:52.924Z,88.41
2022-09-21T20:47:21.530Z,89.01
2022-09-21T20:49:49.842Z,88.72
2022-09-21T20:52:18.280Z,88.80
2022-09-21T20:54:49.492Z,89.10
2022-09-21T20:57:18.077Z,89.02
2022-09-21T20:59:46.150Z,89.14
2022-09-21T21:02:15.222Z,89.08
2022-09-21T21:04:42.987Z,89.42
2022-09-21T21:07:10.975Z,89.58
2022-09-21T21:09:38.669Z,89.94
2022-09-21T21:12:09.388Z,89.74
2022-09-21T21:14:37.288Z,89.91
2022-09-21T21:17:05.499Z,89.91
2022-09-21T21:19:33.370Z,90.04
2022-09-21T21:22:01.056Z,90.21
2022-09-21T21:24:40.993Z,90.36
2022-09-21T21:27:16.532Z,90.49
2022-09-21T21:29:46.252Z,90.58
2022-09-21T21:32:14.936Z,90.37
2022-09-21T21:34:43.497Z,90.37
2022-09-21T21:37:12.261Z,90.57
2022-09-21T21:39:40.015Z,90.65
2022-09-21T21:42:07.994Z,91.09
2022-09-21T21:44:38.981Z,90.98
2022-09-21T21:47:27.731Z,91.89
2022-09-21T21:49:54.761Z,92.33
2022-09-21T21:52:22.531Z,92.60
2022-09-21T21:54:50.825Z,93.02
2022-09-21T21:57:18.929Z,93.14
2022-09-21T21:59:47.912Z,93.09
2022-09-21T22:02:15.795Z,93.04
2022-09-21T22:04:43.521Z,93.45
2022-09-21T22:07:11.439Z,93.50
2022-09-21T22:09:39.098Z,93.65
2022-09-21T22:12:06.996Z,93.68
2022-09-21T22:14:34.725Z,93.93
2022-09-21T22:17:03.828Z,93.96
2022-09-21T22:19:32.943Z,94.16
2022-09-21T22:22:00.969Z,94.19
2022-09-21T22:24:28.651Z,94.65
2022-09-21T22:26:56.916Z,94.44
2022-09-21T22:29:24.682Z,94.95
2022-09-21T22:31:54.067Z,95.04
2022-09-21T22:34:23.143Z,94.73
2022-09-21T22:36:51.317Z,94.90
2022-09-21T22:39:19.490Z,95.02
2022-09-21T22:41:47.266Z,94.73
2022-09-21T22:44:14.895Z,94.71
2022-09-21T22:46:42.680Z,94.74
2022-09-21T22:49:10.449Z,94.66
2022-09-21T22:51:39.457Z,94.96
2022-09-21T22:54:07.314Z,94.67
2022-09-21T22:56:35.263Z,94.68
2022-09-21T22:59:05.074Z,94.85
2022-09-21T23:01:34.718Z,94.60
2022-09-21T23:04:05.211Z,94.88
2022-09-21T23:06:34.959Z,94.82
2022-09-21T23:09:09.101Z,95.20
2022-09-21T23:11:39.022Z,95.14
2022-09-21T23:14:06.979Z,95.22
2022-09-21T23:16:34.857Z,95.22
2022-09-21T23:19:03.206Z,95.12
2022-09-21T23:21:31.375Z,95.11
2022-09-21T23:24:01.087Z,95.41
2022-09-21T23:26:31.455Z,95.44
2022-09-21T23:29:03.538Z,95.54
2022-09-21T23:31:32.969Z,95.66
2022-09-21T23:34:04.394Z,95.52
2022-09-21T23:36:32.985Z,95.49
2022-09-21T23:39:00.702Z,95.57
2022-09-21T23:41:32.083Z,95.69
2022-09-21T23:44:00.040Z,95.62
2022-09-21T23:46:29.238Z,95.57
2022-09-21T23:48:57.944Z,95.71
2022-09-21T23:51:25.929Z,95.90
2022-09-21T23:53:54.603Z,96.08
2022-09-21T23:56:23.947Z,96.12
2022-09-21T23:58:53.527Z,96.22
